sensor_id;sensor_type;location;lat;lon;timestamp;temperature;humidity
79049;DHT22;68680;50.764;6.120;2024-01-15T00:00:01;0.00;99.90
79049;DHT22;68680;50.764;6.120;2024-01-15T00:02:26;0.00;99.90
79049;DHT22;68680;50.764;6.120;2024-01-15T00:04:52;0.00;99.90
79049;DHT22;68680;50.764;6.120;2024-01-15T00:07:18;-0.10;99.90
79049;DHT22;68680;50.764;6.120;2024-01-15T00:09:44;-0.10;99.90
79049;DHT22;68680;50.764;6.120;2024-01-15T00:12:09;-0.20;99.90
79049;DHT22;68680;50.764;6.120;2024-01-15T00:14:36;-0.10;99.90
79049;DHT22;68680;50.764;6.120;2024-01-15T00:17:02;-0.20;99.90
79049;DHT22;68680;50.764;6.120;2024-01-15T00:19:28;-0.10;99.90
79049;DHT22;68680;50.764;6.120;2024-01-15T00:21:54;-0.10;99.90
79049;DHT22;68680;50.764;6.120;2024-01-15T00:24:20;-0.10;99.90
79049;DHT22;68680;50.764;6.120;2024-01-15T00:26:45;-0.10;99.90
79049;DHT22;68680;50.764;6.120;2024-01-15T00:29:11;0.00;99.90
79049;DHT22;68680;50.764;6.120;2024-01-15T00:31:38;0.00;99.90
79049;DHT22;68680;50.764;6.120;2024-01-15T00:34:04;0.00;99.90
79049;DHT22;68680;50.764;6.120;2024-01-15T00:36:29;0.00;99.90
79049;DHT22;68680;50.764;6.120;2024-01-15T00:38:55;0.00;99.90
79049;DHT22;68680;50.764;6.120;2024-01-15T00:41:21;-0.10;99.90
79049;DHT22;68680;50.764;6.120;2024-01-15T00:43:47;0.00;99.90
79049;DHT22;68680;50.764;6.120;2024-01-15T00:46:12;0.00;99.90
79049;DHT22;68680;50.764;6.120;2024-01-15T00:48:40;0.00;99.90
79049;DHT22;68680;50.764;6.120;2024-01-15T00:51:05;0.00;99.90
79049;DHT22;68680;50.764;6.120;2024-01-15T00:53:31;0.00;99.90
79049;DHT22;68680;50.764;6.120;2024-01-15T00:55:57;0.10;99.90
79049;DHT22;68680;50.764;6.120;2024-01-15T00:58:23;0.20;99.90
79049;DHT22;68680;50.764;6.120;2024-01-15T01:00:49;0.20;99.90
79049;DHT22;68680;50.764;6.120;2024-01-15T01:03:15;0.30;99.90
79049;DHT22;68680;50.764;6.120;2024-01-15T01:05:43;0.30;99.90
79049;DHT22;68680;50.764;6.120;2024-01-15T01:08:08;0.40;99.90
79049;DHT22;68680;50.764;6.120;2024-01-15T01:10:34;0.30;99.90
79049;DHT22;68680;50.764;6.120;2024-01-15T01:13:00;0.40;99.90
79049;DHT22;68680;50.764;6.120;2024-01-15T01:15:26;0.40;99.90
79049;DHT22;68680;50.764;6.120;2024-01-15T01:17:51;0.40;99.90
79049;DHT22;68680;50.764;6.120;2024-01-15T01:20:17;0.40;99.90
79049;DHT22;68680;50.764;6.120;2024-01-15T01:22:44;0.40;99.90
79049;DHT22;68680;50.764;6.120;2024-01-15T01:25:10;0.30;99.90
79049;DHT22;68680;50.764;6.120;2024-01-15T01:27:36;0.40;99.90
79049;DHT22;68680;50.764;6.120;2024-01-15T01:30:02;0.30;99.90
79049;DHT22;68680;50.764;6.120;2024-01-15T01:32:28;0.30;99.90
79049;DHT22;68680;50.764;6.120;2024-01-15T01:34:54;0.30;99.90
79049;DHT22;68680;50.764;6.120;2024-01-15T01:37:20;0.30;99.90
79049;DHT22;68680;50.764;6.120;2024-01-15T01:39:47;0.20;99.90
79049;DHT22;68680;50.764;6.120;2024-01-15T01:42:13;0.20;99.90
79049;DHT22;68680;50.764;6.120;2024-01-15T01:44:39;0.20;99.90
79049;DHT22;68680;50.764;6.120;2024-01-15T01:47:06;0.10;99.90
79049;DHT22;68680;50.764;6.120;2024-01-15T01:49:33;0.10;99.90
79049;DHT22;68680;50.764;6.120;2024-01-15T01:52:01;0.20;99.90
79049;DHT22;68680;50.764;6.120;2024-01-15T01:54:31;0.10;99.90
79049;DHT22;68680;50.764;6.120;2024-01-15T01:56:59;0.10;99.90
79049;DHT22;68680;50.764;6.120;2024-01-15T01:59:28;0.20;99.90
79049;DHT22;68680;50.764;6.120;2024-01-15T02:01:55;0.20;99.90
79049;DHT22;68680;50.764;6.120;2024-01-15T02:04:23;0.10;99.90
79049;DHT22;68680;50.764;6.120;2024-01-15T02:06:50;0.10;99.90
79049;DHT22;68680;50.764;6.120;2024-01-15T02:09:17;0.10;99.90
79049;DHT22;68680;50.764;6.120;2024-01-15T02:11:43;0.10;99.90
79049;DHT22;68680;50.764;6.120;2024-01-15T02:14:13;0.10;99.90
79049;DHT22;68680;50.764;6.120;2024-01-15T02:16:39;0.20;99.90
79049;DHT22;68680;50.764;6.120;2024-01-15T02:19:04;0.20;99.90
79049;DHT22;68680;50.764;6.120;2024-01-15T02:21:31;0.20;99.90
79049;DHT22;68680;50.764;6.120;2024-01-15T02:23:58;0.20;99.90
79049;DHT22;68680;50.764;6.120;2024-01-15T02:26:24;0.30;99.90
79049;DHT22;68680;50.764;6.120;2024-01-15T02:28:51;0.30;99.90
79049;DHT22;68680;50.764;6.120;2024-01-15T02:31:17;0.30;99.90
79049;DHT22;68680;50.764;6.120;2024-01-15T02:33:43;0.30;99.90
79049;DHT22;68680;50.764;6.120;2024-01-15T02:36:10;0.30;99.90
79049;DHT22;68680;50.764;6.120;2024-01-15T02:38:36;0.30;99.90
79049;DHT22;68680;50.764;6.120;2024-01-15T02:41:03;0.30;99.90
79049;DHT22;68680;50.764;6.120;2024-01-15T02:43:29;0.30;99.90
79049;DHT22;68680;50.764;6.120;2024-01-15T02:45:54;0.30;99.90
79049;DHT22;68680;50.764;6.120;2024-01-15T02:48:20;0.30;99.90
79049;DHT22;68680;50.764;6.120;2024-01-15T02:50:46;0.30;99.90
79049;DHT22;68680;50.764;6.120;2024-01-15T02:53:12;0.30;99.90
79049;DHT22;68680;50.764;6.120;2024-01-15T02:55:38;0.40;99.90
79049;DHT22;68680;50.764;6.120;2024-01-15T02:58:05;0.40;99.90
79049;DHT22;68680;50.764;6.120;2024-01-15T03:00:31;0.40;99.90
79049;DHT22;68680;50.764;6.120;2024-01-15T03:02:56;0.50;99.90
79049;DHT22;68680;50.764;6.120;2024-01-15T03:05:22;0.50;99.90
79049;DHT22;68680;50.764;6.120;2024-01-15T03:07:48;0.50;99.90
79049;DHT22;68680;50.764;6.120;2024-01-15T03:10:14;0.50;99.90
79049;DHT22;68680;50.764;6.120;2024-01-15T03:12:39;0.40;99.90
79049;DHT22;68680;50.764;6.120;2024-01-15T03:15:08;0.40;99.90
79049;DHT22;68680;50.764;6.120;2024-01-15T03:17:34;0.40;99.90
79049;DHT22;68680;50.764;6.120;2024-01-15T03:20:00;0.50;99.90
79049;DHT22;68680;50.764;6.120;2024-01-15T03:22:26;0.40;99.90
79049;DHT22;68680;50.764;6.120;2024-01-15T03:24:52;0.40;99.90
79049;DHT22;68680;50.764;6.120;2024-01-15T03:27:18;0.50;99.90
79049;DHT22;68680;50.764;6.120;2024-01-15T03:29:44;0.50;99.90
79049;DHT22;68680;50.764;6.120;2024-01-15T03:32:11;0.50;99.90
79049;DHT22;68680;50.764;6.120;2024-01-15T03:34:36;0.50;99.90
79049;DHT22;68680;50.764;6.120;2024-01-15T03:37:02;0.50;99.90
79049;DHT22;68680;50.764;6.120;2024-01-15T03:39:28;0.50;99.90
79049;DHT22;68680;50.764;6.120;2024-01-15T03:41:54;0.60;99.90
79049;DHT22;68680;50.764;6.120;2024-01-15T03:44:20;0.50;99.90
79049;DHT22;68680;50.764;6.120;2024-01-15T03:46:46;0.60;99.90
79049;DHT22;68680;50.764;6.120;2024-01-15T03:49:13;0.60;99.90
79049;DHT22;68680;50.764;6.120;2024-01-15T03:51:39;0.60;99.90
79049;DHT22;68680;50.764;6.120;2024-01-15T03:54:05;0.60;99.90
79049;DHT22;68680;50.764;6.120;2024-01-15T03:56:30;0.60;99.90
79049;DHT22;68680;50.764;6.120;2024-01-15T03:58:56;0.60;99.90
79049;DHT22;68680;50.764;6.120;2024-01-15T04:01:22;0.70;99.90
79049;DHT22;68680;50.764;6.120;2024-01-15T04:03:47;0.70;99.90
79049;DHT22;68680;50.764;6.120;2024-01-15T04:06:14;0.70;99.90
79049;DHT22;68680;50.764;6.120;2024-01-15T04:08:40;0.70;99.90
79049;DHT22;68680;50.764;6.120;2024-01-15T04:11:06;0.70;99.90
79049;DHT22;68680;50.764;6.120;2024-01-15T04:13:32;0.70;99.90
79049;DHT22;68680;50.764;6.120;2024-01-15T04:15:58;0.70;99.90
79049;DHT22;68680;50.764;6.120;2024-01-15T04:18:25;0.70;99.90
79049;DHT22;68680;50.764;6.120;2024-01-15T04:20:51;0.70;99.90
79049;DHT22;68680;50.764;6.120;2024-01-15T04:23:18;0.60;99.90
79049;DHT22;68680;50.764;6.120;2024-01-15T04:25:43;0.70;99.90
79049;DHT22;68680;50.764;6.120;2024-01-15T04:28:09;0.60;99.90
79049;DHT22;68680;50.764;6.120;2024-01-15T04:30:35;0.60;99.90
79049;DHT22;68680;50.764;6.120;2024-01-15T04:33:01;0.70;99.90
79049;DHT22;68680;50.764;6.120;2024-01-15T04:35:27;0.60;99.90
79049;DHT22;68680;50.764;6.120;2024-01-15T04:37:53;0.60;99.90
79049;DHT22;68680;50.764;6.120;2024-01-15T04:40:20;0.70;99.90
79049;DHT22;68680;50.764;6.120;2024-01-15T04:42:45;0.70;99.90
79049;DHT22;68680;50.764;6.120;2024-01-15T04:45:11;0.60;99.90
79049;DHT22;68680;50.764;6.120;2024-01-15T04:47:37;0.70;99.90
79049;DHT22;68680;50.764;6.120;2024-01-15T04:50:03;0.70;99.90
79049;DHT22;68680;50.764;6.120;2024-01-15T04:52:29;0.70;99.90
79049;DHT22;68680;50.764;6.120;2024-01-15T04:54:55;0.70;99.90
79049;DHT22;68680;50.764;6.120;2024-01-15T04:57:22;0.70;99.90
79049;DHT22;68680;50.764;6.120;2024-01-15T04:59:48;0.70;99.90
79049;DHT22;68680;50.764;6.120;2024-01-15T05:02:14;0.70;99.90
79049;DHT22;68680;50.764;6.120;2024-01-15T05:04:39;0.70;99.90
79049;DHT22;68680;50.764;6.120;2024-01-15T05:07:05;0.70;99.90
79049;DHT22;68680;50.764;6.120;2024-01-15T05:09:31;0.80;99.90
79049;DHT22;68680;50.764;6.120;2024-01-15T05:11:56;0.70;99.90
79049;DHT22;68680;50.764;6.120;2024-01-15T05:14:24;0.70;99.90
79049;DHT22;68680;50.764;6.120;2024-01-15T05:16:49;0.70;99.90
79049;DHT22;68680;50.764;6.120;2024-01-15T05:19:15;0.70;99.90
79049;DHT22;68680;50.764;6.120;2024-01-15T05:21:41;0.70;99.90
79049;DHT22;68680;50.764;6.120;2024-01-15T05:24:08;0.80;99.90
79049;DHT22;68680;50.764;6.120;2024-01-15T05:26:33;0.70;99.90
79049;DHT22;68680;50.764;6.120;2024-01-15T05:28:59;0.80;99.90
79049;DHT22;68680;50.764;6.120;2024-01-15T05:31:26;0.80;99.90
79049;DHT22;68680;50.764;6.120;2024-01-15T05:33:52;0.80;99.90
79049;DHT22;68680;50.764;6.120;2024-01-15T05:36:18;0.80;99.90
79049;DHT22;68680;50.764;6.120;2024-01-15T05:38:44;0.80;99.90
79049;DHT22;68680;50.764;6.120;2024-01-15T05:41:09;0.80;99.90
79049;DHT22;68680;50.764;6.120;2024-01-15T05:43:35;0.80;99.90
79049;DHT22;68680;50.764;6.120;2024-01-15T05:46:01;0.80;99.90
79049;DHT22;68680;50.764;6.120;2024-01-15T05:48:28;0.90;99.90
79049;DHT22;68680;50.764;6.120;2024-01-15T05:50:54;0.80;99.90
79049;DHT22;68680;50.764;6.120;2024-01-15T05:53:19;0.80;99.90
79049;DHT22;68680;50.764;6.120;2024-01-15T05:55:45;0.90;99.90
79049;DHT22;68680;50.764;6.120;2024-01-15T05:58:11;0.90;99.90
79049;DHT22;68680;50.764;6.120;2024-01-15T06:00:37;0.80;99.90
79049;DHT22;68680;50.764;6.120;2024-01-15T06:03:03;0.80;99.90
79049;DHT22;68680;50.764;6.120;2024-01-15T06:05:30;0.90;99.90
79049;DHT22;68680;50.764;6.120;2024-01-15T06:07:56;0.90;99.90
79049;DHT22;68680;50.764;6.120;2024-01-15T06:10:21;0.90;99.90
79049;DHT22;68680;50.764;6.120;2024-01-15T06:12:47;0.80;99.90
79049;DHT22;68680;50.764;6.120;2024-01-15T06:15:13;0.80;99.90
79049;DHT22;68680;50.764;6.120;2024-01-15T06:17:39;0.80;99.90
79049;DHT22;68680;50.764;6.120;2024-01-15T06:20:06;0.80;99.90
79049;DHT22;68680;50.764;6.120;2024-01-15T06:22:34;0.80;99.90
79049;DHT22;68680;50.764;6.120;2024-01-15T06:24:59;0.80;99.90
79049;DHT22;68680;50.764;6.120;2024-01-15T06:27:25;0.80;99.90
79049;DHT22;68680;50.764;6.120;2024-01-15T06:29:51;0.80;99.90
79049;DHT22;68680;50.764;6.120;2024-01-15T06:32:16;0.80;99.90
79049;DHT22;68680;50.764;6.120;2024-01-15T06:34:42;0.80;99.90
79049;DHT22;68680;50.764;6.120;2024-01-15T06:37:08;0.80;99.90
79049;DHT22;68680;50.764;6.120;2024-01-15T06:39:35;0.80;99.90
79049;DHT22;68680;50.764;6.120;2024-01-15T06:42:01;0.80;99.90
79049;DHT22;68680;50.764;6.120;2024-01-15T06:44:26;0.80;99.90
79049;DHT22;68680;50.764;6.120;2024-01-15T06:46:52;0.80;99.90
79049;DHT22;68680;50.764;6.120;2024-01-15T06:49:18;0.80;99.90
79049;DHT22;68680;50.764;6.120;2024-01-15T06:51:44;0.80;99.90
79049;DHT22;68680;50.764;6.120;2024-01-15T06:54:09;0.80;99.90
79049;DHT22;68680;50.764;6.120;2024-01-15T06:56:36;0.80;99.90
79049;DHT22;68680;50.764;6.120;2024-01-15T06:59:02;0.80;99.90
79049;DHT22;68680;50.764;6.120;2024-01-15T07:01:28;0.80;99.90
79049;DHT22;68680;50.764;6.120;2024-01-15T07:03:54;0.80;99.90
79049;DHT22;68680;50.764;6.120;2024-01-15T07:06:20;0.80;99.90
79049;DHT22;68680;50.764;6.120;2024-01-15T07:08:46;0.90;99.90
79049;DHT22;68680;50.764;6.120;2024-01-15T07:11:12;0.90;99.90
79049;DHT22;68680;50.764;6.120;2024-01-15T07:13:39;0.90;99.90
79049;DHT22;68680;50.764;6.120;2024-01-15T07:16:05;0.80;99.90
79049;DHT22;68680;50.764;6.120;2024-01-15T07:18:30;0.80;99.90
79049;DHT22;68680;50.764;6.120;2024-01-15T07:20:56;0.80;99.90
79049;DHT22;68680;50.764;6.120;2024-01-15T07:23:22;0.70;99.90
79049;DHT22;68680;50.764;6.120;2024-01-15T07:25:48;0.80;99.90
79049;DHT22;68680;50.764;6.120;2024-01-15T07:28:13;0.80;99.90
79049;DHT22;68680;50.764;6.120;2024-01-15T07:30:41;0.70;99.90
79049;DHT22;68680;50.764;6.120;2024-01-15T07:33:07;0.70;99.90
79049;DHT22;68680;50.764;6.120;2024-01-15T07:35:33;0.70;99.90
79049;DHT22;68680;50.764;6.120;2024-01-15T07:37:58;0.70;99.90
79049;DHT22;68680;50.764;6.120;2024-01-15T07:40:24;0.70;99.90
79049;DHT22;68680;50.764;6.120;2024-01-15T07:42:50;0.80;99.90
79049;DHT22;68680;50.764;6.120;2024-01-15T07:45:16;0.80;99.90
79049;DHT22;68680;50.764;6.120;2024-01-15T07:47:43;0.80;99.90
79049;DHT22;68680;50.764;6.120;2024-01-15T07:50:09;0.80;99.90
79049;DHT22;68680;50.764;6.120;2024-01-15T07:52:35;0.80;99.90
79049;DHT22;68680;50.764;6.120;2024-01-15T07:55:01;0.80;99.90
79049;DHT22;68680;50.764;6.120;2024-01-15T07:57:26;0.80;99.90
79049;DHT22;68680;50.764;6.120;2024-01-15T07:59:52;0.80;99.90
79049;DHT22;68680;50.764;6.120;2024-01-15T08:02:18;0.80;99.90
79049;DHT22;68680;50.764;6.120;2024-01-15T08:04:45;0.80;99.90
79049;DHT22;68680;50.764;6.120;2024-01-15T08:07:11;0.80;99.90
79049;DHT22;68680;50.764;6.120;2024-01-15T08:09:37;0.90;99.90
79049;DHT22;68680;50.764;6.120;2024-01-15T08:12:03;0.90;99.90
79049;DHT22;68680;50.764;6.120;2024-01-15T08:14:29;0.90;99.90
79049;DHT22;68680;50.764;6.120;2024-01-15T08:16:55;0.90;99.90
79049;DHT22;68680;50.764;6.120;2024-01-15T08:19:20;0.90;99.90
79049;DHT22;68680;50.764;6.120;2024-01-15T08:21:47;0.90;99.90
79049;DHT22;68680;50.764;6.120;2024-01-15T08:24:15;0.90;99.90
79049;DHT22;68680;50.764;6.120;2024-01-15T08:26:41;0.80;99.90
79049;DHT22;68680;50.764;6.120;2024-01-15T08:29:06;0.90;99.90
79049;DHT22;68680;50.764;6.120;2024-01-15T08:31:32;0.80;99.90
79049;DHT22;68680;50.764;6.120;2024-01-15T08:33:58;0.90;99.90
79049;DHT22;68680;50.764;6.120;2024-01-15T08:36:24;0.90;99.90
79049;DHT22;68680;50.764;6.120;2024-01-15T08:38:51;1.00;99.90
79049;DHT22;68680;50.764;6.120;2024-01-15T08:41:17;1.00;99.90
79049;DHT22;68680;50.764;6.120;2024-01-15T08:43:42;1.00;99.90
79049;DHT22;68680;50.764;6.120;2024-01-15T08:46:08;1.00;99.90
79049;DHT22;68680;50.764;6.120;2024-01-15T08:48:34;1.10;99.90
79049;DHT22;68680;50.764;6.120;2024-01-15T08:51:00;1.10;99.90
79049;DHT22;68680;50.764;6.120;2024-01-15T08:53:26;1.00;99.90
79049;DHT22;68680;50.764;6.120;2024-01-15T08:55:53;1.10;99.90
79049;DHT22;68680;50.764;6.120;2024-01-15T08:58:18;1.10;99.90
79049;DHT22;68680;50.764;6.120;2024-01-15T09:00:44;1.10;99.90
79049;DHT22;68680;50.764;6.120;2024-01-15T09:03:10;1.10;99.90
79049;DHT22;68680;50.764;6.120;2024-01-15T09:05:36;1.10;99.90
79049;DHT22;68680;50.764;6.120;2024-01-15T09:08:03;1.10;99.90
79049;DHT22;68680;50.764;6.120;2024-01-15T09:10:29;1.10;99.90
79049;DHT22;68680;50.764;6.120;2024-01-15T09:12:56;1.10;99.90
79049;DHT22;68680;50.764;6.120;2024-01-15T09:15:21;1.10;99.90
79049;DHT22;68680;50.764;6.120;2024-01-15T09:17:47;1.00;99.90
79049;DHT22;68680;50.764;6.120;2024-01-15T09:20:13;1.00;99.90
79049;DHT22;68680;50.764;6.120;2024-01-15T09:22:39;1.00;99.90
79049;DHT22;68680;50.764;6.120;2024-01-15T09:25:05;0.90;99.90
79049;DHT22;68680;50.764;6.120;2024-01-15T09:27:31;0.80;99.90
79049;DHT22;68680;50.764;6.120;2024-01-15T09:29:58;0.70;99.90
79049;DHT22;68680;50.764;6.120;2024-01-15T09:32:24;0.70;99.90
79049;DHT22;68680;50.764;6.120;2024-01-15T09:34:50;0.60;99.90
79049;DHT22;68680;50.764;6.120;2024-01-15T09:37:15;0.60;99.90
79049;DHT22;68680;50.764;6.120;2024-01-15T09:39:41;0.60;99.90
79049;DHT22;68680;50.764;6.120;2024-01-15T09:42:07;0.60;99.90
79049;DHT22;68680;50.764;6.120;2024-01-15T09:44:35;0.60;99.90
79049;DHT22;68680;50.764;6.120;2024-01-15T09:47:03;0.60;99.90
79049;DHT22;68680;50.764;6.120;2024-01-15T09:49:30;0.60;99.90
79049;DHT22;68680;50.764;6.120;2024-01-15T09:51:57;0.70;99.90
79049;DHT22;68680;50.764;6.120;2024-01-15T09:54:23;0.60;99.90
79049;DHT22;68680;50.764;6.120;2024-01-15T09:56:49;0.60;99.90
79049;DHT22;68680;50.764;6.120;2024-01-15T09:59:16;0.60;99.90
79049;DHT22;68680;50.764;6.120;2024-01-15T10:01:44;0.60;99.90
79049;DHT22;68680;50.764;6.120;2024-01-15T10:04:12;0.60;99.90
79049;DHT22;68680;50.764;6.120;2024-01-15T10:06:38;0.70;99.90
79049;DHT22;68680;50.764;6.120;2024-01-15T10:09:04;0.70;99.90
79049;DHT22;68680;50.764;6.120;2024-01-15T10:11:30;0.70;99.90
79049;DHT22;68680;50.764;6.120;2024-01-15T10:13:56;0.70;99.90
79049;DHT22;68680;50.764;6.120;2024-01-15T10:16:22;0.70;99.90
79049;DHT22;68680;50.764;6.120;2024-01-15T10:18:48;0.70;99.90
79049;DHT22;68680;50.764;6.120;2024-01-15T10:21:16;0.70;99.90
79049;DHT22;68680;50.764;6.120;2024-01-15T10:23:41;0.70;99.90
79049;DHT22;68680;50.764;6.120;2024-01-15T10:26:08;0.70;99.90
79049;DHT22;68680;50.764;6.120;2024-01-15T10:28:33;0.80;99.90
79049;DHT22;68680;50.764;6.120;2024-01-15T10:31:00;0.80;99.90
79049;DHT22;68680;50.764;6.120;2024-01-15T10:33:26;0.80;99.90
79049;DHT22;68680;50.764;6.120;2024-01-15T10:35:53;0.80;99.90
79049;DHT22;68680;50.764;6.120;2024-01-15T10:38:21;0.90;99.90
79049;DHT22;68680;50.764;6.120;2024-01-15T10:40:48;0.90;99.90
79049;DHT22;68680;50.764;6.120;2024-01-15T10:43:16;0.90;99.90
79049;DHT22;68680;50.764;6.120;2024-01-15T10:45:43;0.90;99.90
79049;DHT22;68680;50.764;6.120;2024-01-15T10:48:09;1.00;99.90
79049;DHT22;68680;50.764;6.120;2024-01-15T10:50:34;1.00;99.90
79049;DHT22;68680;50.764;6.120;2024-01-15T10:53:02;1.00;99.90
79049;DHT22;68680;50.764;6.120;2024-01-15T10:55:30;1.10;99.90
79049;DHT22;68680;50.764;6.120;2024-01-15T10:57:57;1.10;99.90
79049;DHT22;68680;50.764;6.120;2024-01-15T11:00:23;1.10;99.90
79049;DHT22;68680;50.764;6.120;2024-01-15T11:02:50;1.20;99.90
79049;DHT22;68680;50.764;6.120;2024-01-15T11:05:17;1.20;99.90
79049;DHT22;68680;50.764;6.120;2024-01-15T11:07:44;1.30;99.90
79049;DHT22;68680;50.764;6.120;2024-01-15T11:10:41;1.30;99.90
79049;DHT22;68680;50.764;6.120;2024-01-15T11:13:09;1.30;99.90
79049;DHT22;68680;50.764;6.120;2024-01-15T11:15:57;1.20;99.90
79049;DHT22;68680;50.764;6.120;2024-01-15T11:18:23;1.30;99.90
79049;DHT22;68680;50.764;6.120;2024-01-15T11:21:24;1.30;99.90
79049;DHT22;68680;50.764;6.120;2024-01-15T11:23:52;1.30;99.90
79049;DHT22;68680;50.764;6.120;2024-01-15T11:26:32;1.30;99.90
79049;DHT22;68680;50.764;6.120;2024-01-15T11:29:01;1.20;99.90
79049;DHT22;68680;50.764;6.120;2024-01-15T11:31:29;1.20;99.90
79049;DHT22;68680;50.764;6.120;2024-01-15T11:33:55;1.20;99.90
79049;DHT22;68680;50.764;6.120;2024-01-15T11:36:21;1.10;99.90
79049;DHT22;68680;50.764;6.120;2024-01-15T11:38:47;1.10;99.90
79049;DHT22;68680;50.764;6.120;2024-01-15T11:41:14;1.10;99.90
79049;DHT22;68680;50.764;6.120;2024-01-15T11:43:41;1.10;99.90
79049;DHT22;68680;50.764;6.120;2024-01-15T11:46:11;1.10;99.90
79049;DHT22;68680;50.764;6.120;2024-01-15T11:48:42;1.20;99.90
79049;DHT22;68680;50.764;6.120;2024-01-15T11:51:10;1.30;99.90
79049;DHT22;68680;50.764;6.120;2024-01-15T11:53:42;1.30;99.90
79049;DHT22;68680;50.764;6.120;2024-01-15T11:56:15;1.30;99.90
79049;DHT22;68680;50.764;6.120;2024-01-15T11:58:42;1.30;99.90
79049;DHT22;68680;50.764;6.120;2024-01-15T12:01:10;1.30;99.90
79049;DHT22;68680;50.764;6.120;2024-01-15T12:03:36;1.30;99.90
79049;DHT22;68680;50.764;6.120;2024-01-15T12:06:02;1.30;99.90
79049;DHT22;68680;50.764;6.120;2024-01-15T12:08:30;1.50;99.90
79049;DHT22;68680;50.764;6.120;2024-01-15T12:10:56;1.60;99.90
79049;DHT22;68680;50.764;6.120;2024-01-15T12:13:22;1.70;99.90
79049;DHT22;68680;50.764;6.120;2024-01-15T12:15:49;1.60;99.90
79049;DHT22;68680;50.764;6.120;2024-01-15T12:18:17;1.60;99.90
79049;DHT22;68680;50.764;6.120;2024-01-15T12:20:44;1.60;99.90
79049;DHT22;68680;50.764;6.120;2024-01-15T12:23:11;1.60;99.90
79049;DHT22;68680;50.764;6.120;2024-01-15T12:25:37;1.60;99.90
79049;DHT22;68680;50.764;6.120;2024-01-15T12:28:03;1.50;99.90
79049;DHT22;68680;50.764;6.120;2024-01-15T12:30:30;1.40;99.90
79049;DHT22;68680;50.764;6.120;2024-01-15T12:33:01;1.30;99.90
79049;DHT22;68680;50.764;6.120;2024-01-15T12:35:27;1.20;99.90
79049;DHT22;68680;50.764;6.120;2024-01-15T12:37:54;1.20;99.90
79049;DHT22;68680;50.764;6.120;2024-01-15T12:40:20;1.10;99.90
79049;DHT22;68680;50.764;6.120;2024-01-15T12:42:47;1.20;99.90
79049;DHT22;68680;50.764;6.120;2024-01-15T12:45:13;1.30;99.90
79049;DHT22;68680;50.764;6.120;2024-01-15T12:47:40;1.40;99.90
79049;DHT22;68680;50.764;6.120;2024-01-15T12:50:09;1.30;99.90
79049;DHT22;68680;50.764;6.120;2024-01-15T12:52:35;1.30;99.90
79049;DHT22;68680;50.764;6.120;2024-01-15T12:55:01;1.20;99.90
79049;DHT22;68680;50.764;6.120;2024-01-15T12:57:27;1.10;99.90
79049;DHT22;68680;50.764;6.120;2024-01-15T12:59:54;1.00;99.90
79049;DHT22;68680;50.764;6.120;2024-01-15T13:02:20;0.90;99.90
79049;DHT22;68680;50.764;6.120;2024-01-15T13:04:46;0.70;99.90
79049;DHT22;68680;50.764;6.120;2024-01-15T13:07:13;0.70;99.90
79049;DHT22;68680;50.764;6.120;2024-01-15T13:09:39;0.70;99.90
79049;DHT22;68680;50.764;6.120;2024-01-15T13:12:05;0.60;99.90
79049;DHT22;68680;50.764;6.120;2024-01-15T13:14:31;0.60;99.90
79049;DHT22;68680;50.764;6.120;2024-01-15T13:16:58;0.60;99.90
79049;DHT22;68680;50.764;6.120;2024-01-15T13:19:24;0.70;99.90
79049;DHT22;68680;50.764;6.120;2024-01-15T13:21:50;0.60;99.90
79049;DHT22;68680;50.764;6.120;2024-01-15T13:24:18;0.60;99.90
79049;DHT22;68680;50.764;6.120;2024-01-15T13:26:43;0.60;99.90
79049;DHT22;68680;50.764;6.120;2024-01-15T13:29:09;0.60;99.90
79049;DHT22;68680;50.764;6.120;2024-01-15T13:31:35;0.70;99.90
79049;DHT22;68680;50.764;6.120;2024-01-15T13:34:01;0.70;99.90
79049;DHT22;68680;50.764;6.120;2024-01-15T13:36:27;0.80;99.90
79049;DHT22;68680;50.764;6.120;2024-01-15T13:38:53;0.80;99.90
79049;DHT22;68680;50.764;6.120;2024-01-15T13:41:21;0.80;99.90
79049;DHT22;68680;50.764;6.120;2024-01-15T13:43:49;0.80;99.90
79049;DHT22;68680;50.764;6.120;2024-01-15T13:46:15;0.90;99.90
79049;DHT22;68680;50.764;6.120;2024-01-15T13:48:41;0.90;99.90
79049;DHT22;68680;50.764;6.120;2024-01-15T13:51:07;1.00;99.90
79049;DHT22;68680;50.764;6.120;2024-01-15T13:53:32;0.90;99.90
79049;DHT22;68680;50.764;6.120;2024-01-15T13:55:58;0.80;99.90
79049;DHT22;68680;50.764;6.120;2024-01-15T13:58:25;0.80;99.90
79049;DHT22;68680;50.764;6.120;2024-01-15T14:00:51;0.80;99.90
79049;DHT22;68680;50.764;6.120;2024-01-15T14:03:17;0.80;99.90
79049;DHT22;68680;50.764;6.120;2024-01-15T14:05:43;0.80;99.90
79049;DHT22;68680;50.764;6.120;2024-01-15T14:08:09;0.70;99.90
79049;DHT22;68680;50.764;6.120;2024-01-15T14:10:34;0.70;99.90
79049;DHT22;68680;50.764;6.120;2024-01-15T14:13:00;0.70;99.90
79049;DHT22;68680;50.764;6.120;2024-01-15T14:15:27;0.70;99.90
79049;DHT22;68680;50.764;6.120;2024-01-15T14:17:53;0.80;99.90
79049;DHT22;68680;50.764;6.120;2024-01-15T14:20:19;0.80;99.90
79049;DHT22;68680;50.764;6.120;2024-01-15T14:22:44;0.80;99.90
79049;DHT22;68680;50.764;6.120;2024-01-15T14:25:10;0.80;99.90
79049;DHT22;68680;50.764;6.120;2024-01-15T14:27:36;0.80;99.90
79049;DHT22;68680;50.764;6.120;2024-01-15T14:30:02;0.70;99.90
79049;DHT22;68680;50.764;6.120;2024-01-15T14:32:29;0.80;99.90
79049;DHT22;68680;50.764;6.120;2024-01-15T14:34:55;0.80;99.90
79049;DHT22;68680;50.764;6.120;2024-01-15T14:37:20;0.70;99.90
79049;DHT22;68680;50.764;6.120;2024-01-15T14:39:46;0.70;99.90
79049;DHT22;68680;50.764;6.120;2024-01-15T14:42:12;0.70;99.90
79049;DHT22;68680;50.764;6.120;2024-01-15T14:44:38;0.70;99.90
79049;DHT22;68680;50.764;6.120;2024-01-15T14:47:04;0.70;99.90
79049;DHT22;68680;50.764;6.120;2024-01-15T14:49:31;0.70;99.90
79049;DHT22;68680;50.764;6.120;2024-01-15T14:51:57;0.80;99.90
79049;DHT22;68680;50.764;6.120;2024-01-15T14:54:22;0.70;99.90
79049;DHT22;68680;50.764;6.120;2024-01-15T14:56:48;0.80;99.90
79049;DHT22;68680;50.764;6.120;2024-01-15T14:59:14;0.80;99.90
79049;DHT22;68680;50.764;6.120;2024-01-15T15:01:40;0.80;99.90
79049;DHT22;68680;50.764;6.120;2024-01-15T15:04:06;0.80;99.90
79049;DHT22;68680;50.764;6.120;2024-01-15T15:06:33;0.80;99.90
79049;DHT22;68680;50.764;6.120;2024-01-15T15:08:58;0.80;99.90
79049;DHT22;68680;50.764;6.120;2024-01-15T15:11:24;0.70;99.90
79049;DHT22;68680;50.764;6.120;2024-01-15T15:13:50;0.70;99.90
79049;DHT22;68680;50.764;6.120;2024-01-15T15:16:16;0.70;99.90
79049;DHT22;68680;50.764;6.120;2024-01-15T15:18:41;0.70;99.90
79049;DHT22;68680;50.764;6.120;2024-01-15T15:21:07;0.80;99.90
79049;DHT22;68680;50.764;6.120;2024-01-15T15:23:34;0.70;99.90
79049;DHT22;68680;50.764;6.120;2024-01-15T15:26:00;0.70;99.90
79049;DHT22;68680;50.764;6.120;2024-01-15T15:28:26;0.70;99.90
79049;DHT22;68680;50.764;6.120;2024-01-15T15:30:52;0.70;99.90
79049;DHT22;68680;50.764;6.120;2024-01-15T15:33:18;0.70;99.90
79049;DHT22;68680;50.764;6.120;2024-01-15T15:35:44;0.70;99.90
79049;DHT22;68680;50.764;6.120;2024-01-15T15:38:10;0.60;99.90